LPAZ/SMA METAR and TAF weather

Enter ICAO airport designator
Station Type Date Time Source
LPAZ METAR 2019/12/13 03:30 UTC NOAA

LPAZ 130330Z 25004KT 200V290 9999 BKN034 15/08 Q1034


Station Type Date Time Source
LPAZ Decoded METAR 2019/12/13 03:30 UTC NOAA

Santa Maria Acores , Portugal (LPAZ) 36-58N 025-10W 100M
Dec 12, 2019 - 10:30 PM EST / 2019.12.13 0330 UTC
Wind: from the WSW (250 degrees) at 5 MPH (4 KT) (direction variable):0
Visibility: greater than 7 mile(s):0
Sky conditions: mostly cloudy
Temperature: 59 F (15 C)
Dew Point: 46 F (8 C)
Relative Humidity: 62%
Pressure (altimeter): 30.53 in. Hg (1034 hPa)
ob: LPAZ 130330Z 25004KT 200V290 9999 BKN034 15/08 Q1034
cycle: 3

Station Type Date Time Source
LPAZ TAF 2019/12/12 18:18 UTC NOAA

TAF TAF LPAZ 121700Z 1218/1324 VRB05KT 9999 FEW020 BKN035
TEMPO 1218/1324 SCT025
BECMG 1303/1306 26008KT
BECMG 1321/1324 24015KT

Example: see airport list